Sherbrooke, Canada
Current Conditions -  °F | °C
As of 11:00 AM on Saturday 25 Oct 2014 (Local Time) from CYSC Reporting Station
Clear Clear  
Wind Chill: 46°   Ceiling: Unl
Heat Index: 48°   Visibility: 9mi
Dew Point: 41°   Wind: 5mph
Humidity: 76%   Direction: 250°WSW
Pressure: 29.67"   Gusts: NA
Location:  45.4°N, 71.89°W
Report Text: CYSC 251500Z AUTO 25004KT 190V270 9SM CLR 09/05 A2967 RMK SLP055
Loading
Personal Weather Stations






























Interactive Weather Map
Tropical Storm Tracking
New forecast layout! Learn more

10-Day Weather Forecast

Advertisements
Track Severe Weather on mobile